createdAt,value
2023-12-02T00:00:45.585Z,100286.28
2023-12-02T00:03:12.238Z,100285.16
2023-12-02T00:05:38.959Z,100286.19
2023-12-02T00:08:05.605Z,100282.97
2023-12-02T00:10:32.139Z,100283.22
2023-12-02T00:12:58.738Z,100275.97
2023-12-02T00:15:25.318Z,100267.91
2023-12-02T00:17:52.238Z,100257.13
2023-12-02T00:20:18.939Z,100263.03
2023-12-02T00:22:45.533Z,100259.53
2023-12-02T00:25:12.076Z,100250.66
2023-12-02T00:27:38.595Z,100247.69
2023-12-02T00:30:06.212Z,100249.78
2023-12-02T00:32:32.856Z,100249.28
2023-12-02T00:34:59.427Z,100245.56
2023-12-02T00:37:25.979Z,100249.28
2023-12-02T00:39:52.630Z,100242.31
2023-12-02T00:42:19.283Z,100240.94
2023-12-02T00:44:45.937Z,100242.88
2023-12-02T00:47:12.503Z,100242.00
2023-12-02T00:49:39.241Z,100239.63
2023-12-02T00:52:05.952Z,100244.50
2023-12-02T00:54:35.278Z,100247.78
2023-12-02T00:57:02.177Z,100237.59
2023-12-02T00:59:28.784Z,100245.44
2023-12-02T01:01:55.610Z,100236.56
2023-12-02T01:04:22.306Z,100244.91
2023-12-02T01:06:48.925Z,100243.84
2023-12-02T01:09:15.497Z,100250.88
2023-12-02T01:11:42.096Z,100245.19
2023-12-02T01:14:08.685Z,100245.19
2023-12-02T01:16:35.266Z,100247.63
2023-12-02T01:19:01.944Z,100256.78
2023-12-02T01:21:28.564Z,100256.22
2023-12-02T01:23:55.204Z,100258.34
2023-12-02T01:26:21.952Z,100259.41
2023-12-02T01:28:48.493Z,100264.25
2023-12-02T01:31:15.058Z,100268.75
2023-12-02T01:33:41.712Z,100272.31
2023-12-02T01:36:12.893Z,100262.88
2023-12-02T01:38:39.489Z,100259.16
2023-12-02T01:41:06.333Z,100264.25
2023-12-02T01:43:32.981Z,100260.22
2023-12-02T01:45:59.598Z,100259.16
2023-12-02T01:48:30.023Z,100259.41
2023-12-02T01:50:57.913Z,100267.75
2023-12-02T01:53:24.811Z,100260.50
2023-12-02T01:55:52.172Z,100253.63
2023-12-02T01:58:19.115Z,100257.06
2023-12-02T02:00:45.757Z,100256.25
2023-12-02T02:03:12.409Z,100253.28
2023-12-02T02:05:39.369Z,100258.66
2023-12-02T02:08:06.006Z,100263.75
2023-12-02T02:10:32.539Z,100258.41
2023-12-02T02:12:59.064Z,100260.56
2023-12-02T02:15:25.664Z,100260.81
2023-12-02T02:17:52.246Z,100261.88
2023-12-02T02:20:18.832Z,100266.19
2023-12-02T02:22:45.406Z,100267.53
2023-12-02T02:25:11.970Z,100265.91
2023-12-02T02:27:38.554Z,100277.75
2023-12-02T02:30:06.406Z,100274.81
2023-12-02T02:32:32.984Z,100285.28
2023-12-02T02:34:59.609Z,100283.41
2023-12-02T02:37:26.155Z,100281.84
2023-12-02T02:39:52.682Z,100276.72
2023-12-02T02:42:19.381Z,100267.84
2023-12-02T02:44:45.878Z,100274.56
2023-12-02T02:47:12.903Z,100276.19
2023-12-02T02:49:39.452Z,100266.28
2023-12-02T02:52:06.088Z,100270.06
2023-12-02T02:54:32.722Z,100266.28
2023-12-02T02:56:59.443Z,100271.94
2023-12-02T02:59:25.973Z,100272.75
2023-12-02T03:01:52.521Z,100274.34
2023-12-02T03:04:19.306Z,100277.81
2023-12-02T03:06:45.948Z,100270.06
2023-12-02T03:09:13.107Z,100268.22
2023-12-02T03:11:39.766Z,100265.81
2023-12-02T03:14:07.143Z,100272.50
2023-12-02T03:16:34.189Z,100265.53
2023-12-02T03:19:01.941Z,100261.50
2023-12-02T03:21:28.736Z,100263.97
2023-12-02T03:23:55.328Z,100264.75
2023-12-02T03:26:24.272Z,100268.25
2023-12-02T03:28:50.818Z,100263.41
2023-12-02T03:31:17.346Z,100257.75
2023-12-02T03:33:44.024Z,100261.78
2023-12-02T03:36:11.117Z,100263.69
2023-12-02T03:38:38.234Z,100262.38
2023-12-02T03:41:05.594Z,100255.97
2023-12-02T03:43:33.781Z,100264.03
2023-12-02T03:46:03.082Z,100266.72
2023-12-02T03:48:30.057Z,100276.66
2023-12-02T03:50:56.948Z,100278.03
2023-12-02T03:53:23.574Z,100274.25
2023-12-02T03:55:50.181Z,100271.56
2023-12-02T03:58:16.710Z,100282.53
2023-12-02T04:00:43.286Z,100283.03
2023-12-02T04:03:09.863Z,100279.56
2023-12-02T04:05:36.416Z,100278.75
2023-12-02T04:08:03.225Z,100272.81
2023-12-02T04:10:29.849Z,100277.41
2023-12-02T04:12:56.408Z,100273.63
2023-12-02T04:15:22.990Z,100274.94
2023-12-02T04:17:49.617Z,100282.44
2023-12-02T04:20:16.542Z,100276.78
2023-12-02T04:22:43.392Z,100277.28
2023-12-02T04:25:09.932Z,100272.97
2023-12-02T04:27:37.216Z,100277.81
2023-12-02T04:30:05.306Z,100279.69
2023-12-02T04:32:31.960Z,100278.91
2023-12-02T04:34:58.583Z,100284.59
2023-12-02T04:37:25.173Z,100274.63
2023-12-02T04:39:53.514Z,100272.16
2023-12-02T04:42:20.185Z,100270.00
2023-12-02T04:44:46.965Z,100268.97
2023-12-02T04:47:13.610Z,100261.19
2023-12-02T04:49:41.563Z,100265.22
2023-12-02T04:52:08.170Z,100268.13
2023-12-02T04:54:35.356Z,100273.25
2023-12-02T04:57:02.479Z,100275.66
2023-12-02T04:59:28.988Z,100281.56
2023-12-02T05:01:56.458Z,100277.53
2023-12-02T05:04:23.015Z,100283.19
2023-12-02T05:06:51.730Z,100290.41
2023-12-02T05:09:18.328Z,100289.41
2023-12-02T05:11:44.857Z,100292.91
2023-12-02T05:14:11.472Z,100292.38
2023-12-02T05:16:42.489Z,100295.91
2023-12-02T05:19:09.113Z,100294.28
2023-12-02T05:21:38.465Z,100304.25
2023-12-02T05:24:05.444Z,100297.00
2023-12-02T05:26:32.879Z,100294.03
2023-12-02T05:29:01.901Z,100294.59
2023-12-02T05:31:28.556Z,100299.97
2023-12-02T05:33:55.309Z,100294.59
2023-12-02T05:36:21.977Z,100295.16
2023-12-02T05:38:48.529Z,100303.22
2023-12-02T05:41:15.025Z,100302.16
2023-12-02T05:43:41.519Z,100301.66
2023-12-02T05:46:08.572Z,100315.56
2023-12-02T05:48:35.202Z,100316.63
2023-12-02T05:51:04.401Z,100318.72
2023-12-02T05:53:32.251Z,100333.25
2023-12-02T05:55:58.799Z,100327.03
2023-12-02T05:58:25.978Z,100329.50
2023-12-02T06:00:52.510Z,100334.84
2023-12-02T06:03:19.152Z,100333.00
2023-12-02T06:05:45.734Z,100336.53
2023-12-02T06:08:12.387Z,100345.88
2023-12-02T06:10:39.288Z,100342.16
2023-12-02T06:13:05.797Z,100345.09
2023-12-02T06:15:32.503Z,100346.72
2023-12-02T06:17:59.291Z,100344.59
2023-12-02T06:20:25.933Z,100346.72
2023-12-02T06:22:52.795Z,100354.22
2023-12-02T06:25:19.339Z,100348.81
2023-12-02T06:27:46.608Z,100351.75
2023-12-02T06:30:18.993Z,100351.19
2023-12-02T06:32:45.827Z,100359.00
2023-12-02T06:35:13.331Z,100360.84
2023-12-02T06:37:39.953Z,100370.28
2023-12-02T06:40:07.241Z,100371.66
2023-12-02T06:42:33.978Z,100369.50
2023-12-02T06:45:00.653Z,100372.16
2023-12-02T06:47:27.230Z,100364.91
2023-12-02T06:49:53.865Z,100377.25
2023-12-02T06:52:20.437Z,100376.22
2023-12-02T06:55:31.224Z,100377.78
2023-12-02T06:57:33.699Z,100382.63
2023-12-02T07:00:00.427Z,100384.22
2023-12-02T07:02:27.591Z,100385.81
2023-12-02T07:04:54.175Z,100385.81
2023-12-02T07:07:20.666Z,100389.81
2023-12-02T07:09:47.177Z,100396.25
2023-12-02T07:12:13.875Z,100389.75
2023-12-02T07:14:40.398Z,100395.88
2023-12-02T07:17:06.948Z,100398.00
2023-12-02T07:19:33.637Z,100399.63
2023-12-02T07:22:00.226Z,100406.09
2023-12-02T07:24:26.838Z,100402.59
2023-12-02T07:26:53.633Z,100400.72
2023-12-02T07:29:20.136Z,100403.41
2023-12-02T07:31:46.816Z,100403.97
2023-12-02T07:34:13.438Z,100412.78
2023-12-02T07:36:39.970Z,100407.44
2023-12-02T07:39:06.602Z,100411.75
2023-12-02T07:41:33.205Z,100402.88
2023-12-02T07:43:59.754Z,100395.91
2023-12-02T07:46:27.812Z,100394.28
2023-12-02T07:48:55.038Z,100387.31
2023-12-02T07:51:21.616Z,100384.34
2023-12-02T07:53:48.565Z,100391.31
2023-12-02T07:56:17.942Z,100387.00
2023-12-02T07:58:44.486Z,100393.69
2023-12-02T08:01:11.769Z,100401.75
2023-12-02T08:03:38.350Z,100409.31
2023-12-02T08:06:05.699Z,100412.50
2023-12-02T08:08:32.256Z,100416.31
2023-12-02T08:10:58.898Z,100425.22
2023-12-02T08:13:25.659Z,100425.47
2023-12-02T08:15:52.279Z,100429.22
2023-12-02T08:18:19.874Z,100434.00
2023-12-02T08:20:47.841Z,100432.38
2023-12-02T08:23:14.465Z,100439.34
2023-12-02T08:25:41.215Z,100442.03
2023-12-02T08:28:07.743Z,100443.69
2023-12-02T08:30:34.318Z,100447.19
2023-12-02T08:33:00.889Z,100446.66
2023-12-02T08:35:27.465Z,100450.38
2023-12-02T08:37:54.018Z,100448.78
2023-12-02T08:40:21.108Z,100454.16
2023-12-02T08:42:47.653Z,100443.41
2023-12-02T08:45:14.204Z,100450.66
2023-12-02T08:47:41.661Z,100449.31
2023-12-02T08:50:08.620Z,100448.50
2023-12-02T08:52:35.285Z,100452.78
2023-12-02T08:55:01.856Z,100449.03
2023-12-02T08:57:28.380Z,100462.59
2023-12-02T08:59:55.387Z,100465.00
2023-12-02T09:02:22.095Z,100470.84
2023-12-02T09:04:48.744Z,100472.19
2023-12-02T09:07:15.345Z,100476.25
2023-12-02T09:09:43.349Z,100474.03
2023-12-02T09:12:09.988Z,100473.22
2023-12-02T09:14:36.614Z,100468.63
2023-12-02T09:17:04.811Z,100460.03
2023-12-02T09:19:31.383Z,100458.69
2023-12-02T09:21:58.022Z,100451.66
2023-12-02T09:24:41.831Z,100451.31
2023-12-02T09:27:08.875Z,100451.03
2023-12-02T09:29:42.189Z,100452.34
2023-12-02T09:32:19.711Z,100449.63
2023-12-02T09:35:02.243Z,100434.03
2023-12-02T09:37:53.039Z,100425.34
2023-12-02T09:40:22.659Z,100423.22
2023-12-02T09:42:56.424Z,100426.69
2023-12-02T09:45:26.397Z,100427.69
2023-12-02T09:48:06.497Z,100419.28
2023-12-02T09:50:52.979Z,100420.06
2023-12-02T09:53:28.593Z,100418.19
2023-12-02T09:56:02.296Z,100427.84
2023-12-02T09:58:43.789Z,100423.78
2023-12-02T10:01:32.628Z,100420.00
2023-12-02T10:04:16.322Z,100411.03
2023-12-02T10:06:57.430Z,100412.56
2023-12-02T10:10:01.384Z,100420.59
2023-12-02T10:12:49.606Z,100420.81
2023-12-02T10:15:19.969Z,100414.63
2023-12-02T10:18:09.619Z,100420.81
2023-12-02T10:20:39.570Z,100412.69
2023-12-02T10:23:32.456Z,100408.56
2023-12-02T10:26:25.267Z,100410.44
2023-12-02T10:29:01.139Z,100405.06
2023-12-02T10:31:32.162Z,100411.19
2023-12-02T10:34:01.712Z,100420.88
2023-12-02T10:36:29.813Z,100414.41
2023-12-02T10:39:14.731Z,100416.00
2023-12-02T10:41:49.774Z,100419.22
2023-12-02T10:44:20.853Z,100417.59
2023-12-02T10:46:49.923Z,100415.19
2023-12-02T10:49:18.336Z,100407.97
2023-12-02T10:52:40.363Z,100409.09
2023-12-02T10:54:40.458Z,100409.47
2023-12-02T10:57:08.972Z,100411.28
2023-12-02T10:59:50.842Z,100413.13
2023-12-02T11:02:40.051Z,100423.56
2023-12-02T11:05:19.831Z,100424.69
2023-12-02T11:07:50.674Z,100430.06
2023-12-02T11:10:22.299Z,100426.06
2023-12-02T11:12:53.699Z,100419.88
2023-12-02T11:15:24.191Z,100420.69
2023-12-02T11:18:03.607Z,100419.16
2023-12-02T11:20:36.430Z,100421.03
2023-12-02T11:23:22.711Z,100422.97
2023-12-02T11:26:26.980Z,100425.63
2023-12-02T11:29:18.800Z,100420.16
2023-12-02T11:32:07.277Z,100429.41
2023-12-02T11:34:51.323Z,100423.16
2023-12-02T11:37:33.249Z,100432.53
2023-12-02T11:40:47.876Z,100435.53
2023-12-02T11:43:40.663Z,100439.31
2023-12-02T11:46:15.845Z,100440.13
2023-12-02T11:49:00.380Z,100432.63
2023-12-02T11:51:41.741Z,100434.16
2023-12-02T11:54:32.046Z,100434.09
2023-12-02T11:57:11.848Z,100430.31
2023-12-02T11:59:58.600Z,100432.72
2023-12-02T12:02:51.935Z,100431.34
2023-12-02T12:05:38.422Z,100424.03
2023-12-02T12:08:22.351Z,100422.75
2023-12-02T12:10:53.395Z,100429.72
2023-12-02T12:13:21.530Z,100426.31
2023-12-02T12:15:48.335Z,100422.50
2023-12-02T12:18:17.029Z,100425.50
2023-12-02T12:20:45.765Z,100421.66
2023-12-02T12:23:12.890Z,100429.72
2023-12-02T12:25:39.432Z,100427.59
2023-12-02T12:28:06.913Z,100427.59
2023-12-02T12:30:44.568Z,100422.50
2023-12-02T12:33:13.893Z,100417.66
2023-12-02T12:35:40.508Z,100422.75
2023-12-02T12:38:11.025Z,100410.50
2023-12-02T12:40:40.394Z,100413.50
2023-12-02T12:43:14.141Z,100422.69
2023-12-02T12:45:41.349Z,100417.22
2023-12-02T12:48:08.556Z,100427.50
2023-12-02T12:50:38.204Z,100435.22
2023-12-02T12:53:12.736Z,100427.06
2023-12-02T12:55:45.053Z,100430.78
2023-12-02T12:58:16.441Z,100434.28
2023-12-02T13:00:46.975Z,100429.91
2023-12-02T13:03:46.367Z,100439.09
2023-12-02T13:06:35.174Z,100444.19
2023-12-02T13:09:10.125Z,100445.56
2023-12-02T13:12:03.129Z,100457.94
2023-12-02T13:14:38.384Z,100448.69
2023-12-02T13:17:06.133Z,100457.00
2023-12-02T13:19:35.795Z,100461.00
2023-12-02T13:22:04.062Z,100460.50
2023-12-02T13:24:37.000Z,100458.88
2023-12-02T13:27:04.951Z,100463.03
2023-12-02T13:29:31.918Z,100462.56
2023-12-02T13:32:00.207Z,100475.03
2023-12-02T13:34:32.704Z,100476.38
2023-12-02T13:37:01.142Z,100480.59
2023-12-02T13:39:31.275Z,100480.41
2023-12-02T13:42:02.332Z,100492.44
2023-12-02T13:44:31.704Z,100492.66
2023-12-02T13:47:27.579Z,100491.84
2023-12-02T13:49:59.319Z,100491.84
2023-12-02T13:52:44.248Z,100482.81
2023-12-02T13:55:30.958Z,100482.31
2023-12-02T13:58:21.235Z,100482.81
2023-12-02T14:00:47.941Z,100477.50
2023-12-02T14:03:42.167Z,100475.97
2023-12-02T14:06:24.990Z,100480.03
2023-12-02T14:08:54.888Z,100476.75
2023-12-02T14:11:56.654Z,100479.22
2023-12-02T14:14:23.056Z,100492.16
2023-12-02T14:17:08.268Z,100487.91
2023-12-02T14:20:11.558Z,100485.88
2023-12-02T14:22:46.941Z,100479.09
2023-12-02T14:25:34.804Z,100487.75
2023-12-02T14:28:27.805Z,100490.97
2023-12-02T14:31:23.483Z,100502.63
2023-12-02T14:33:50.059Z,100495.19
2023-12-02T14:36:35.259Z,100504.47
2023-12-02T14:39:07.905Z,100510.16
2023-12-02T14:41:48.550Z,100506.69
2023-12-02T14:44:35.323Z,100512.69
2023-12-02T14:47:12.494Z,100521.88
2023-12-02T14:49:49.772Z,100525.00
2023-12-02T14:52:20.659Z,100525.50
2023-12-02T14:54:47.698Z,100530.59
2023-12-02T14:57:15.563Z,100533.91
2023-12-02T14:59:52.749Z,100539.28
2023-12-02T15:02:38.970Z,100542.78
2023-12-02T15:05:10.193Z,100551.31
2023-12-02T15:07:43.088Z,100546.44
2023-12-02T15:10:13.729Z,100550.25
2023-12-02T15:12:49.123Z,100554.00
2023-12-02T15:15:33.933Z,100553.72
2023-12-02T15:18:02.346Z,100564.59
2023-12-02T15:20:30.670Z,100554.06
2023-12-02T15:23:32.500Z,100555.09
2023-12-02T15:26:00.640Z,100555.41
2023-12-02T15:28:27.179Z,100570.25
2023-12-02T15:31:17.061Z,100567.84
2023-12-02T15:33:44.170Z,100577.31
2023-12-02T15:36:14.198Z,100576.50
2023-12-02T15:38:41.626Z,100592.44
2023-12-02T15:41:08.345Z,100599.34
2023-12-02T15:43:35.349Z,100594.16
2023-12-02T15:46:02.379Z,100598.25
2023-12-02T15:48:29.316Z,100605.75
2023-12-02T15:50:56.000Z,100607.88
2023-12-02T15:53:24.485Z,100611.16
2023-12-02T15:55:52.327Z,100604.31
2023-12-02T15:58:19.007Z,100606.47
2023-12-02T16:00:45.605Z,100609.41
2023-12-02T16:03:12.332Z,100621.81
2023-12-02T16:05:39.149Z,100623.53
2023-12-02T16:08:08.881Z,100627.03
2023-12-02T16:10:36.158Z,100616.56
2023-12-02T16:13:03.307Z,100622.91
2023-12-02T16:15:31.189Z,100624.06
2023-12-02T16:18:01.400Z,100631.88
2023-12-02T16:20:28.464Z,100629.22
2023-12-02T16:22:55.309Z,100635.19
2023-12-02T16:25:22.247Z,100628.69
2023-12-02T16:27:49.640Z,100628.22
2023-12-02T16:30:17.744Z,100632.22
2023-12-02T16:32:45.878Z,100629.56
2023-12-02T16:35:13.441Z,100635.81
2023-12-02T16:37:40.992Z,100635.03
2023-12-02T16:40:08.945Z,100633.72
2023-12-02T16:42:36.788Z,100632.91
2023-12-02T16:45:22.453Z,100633.41
2023-12-02T16:47:52.177Z,100633.66
2023-12-02T16:50:22.790Z,100642.09
2023-12-02T16:52:59.238Z,100648.44
2023-12-02T16:55:29.893Z,100652.19
2023-12-02T16:57:57.716Z,100652.19
2023-12-02T17:00:35.194Z,100661.38
2023-12-02T17:03:01.793Z,100659.69
2023-12-02T17:05:28.360Z,100655.84
2023-12-02T17:08:24.277Z,100669.84
2023-12-02T17:10:59.391Z,100676.28
2023-12-02T17:13:26.605Z,100677.31
2023-12-02T17:15:53.697Z,100677.31
2023-12-02T17:18:35.355Z,100672.50
2023-12-02T17:21:02.200Z,100675.94
2023-12-02T17:23:33.183Z,100675.19
2023-12-02T17:26:02.602Z,100676.28
2023-12-02T17:28:29.257Z,100683.00
2023-12-02T17:30:55.801Z,100690.75
2023-12-02T17:33:23.694Z,100680.81
2023-12-02T17:35:50.301Z,100686.88
2023-12-02T17:38:16.913Z,100688.81
2023-12-02T17:40:43.490Z,100693.97
2023-12-02T17:43:10.078Z,100695.56
2023-12-02T17:45:37.206Z,100698.59
2023-12-02T17:48:04.448Z,100696.72
2023-12-02T17:50:31.898Z,100698.38
2023-12-02T17:52:58.759Z,100697.34
2023-12-02T17:55:25.295Z,100703.81
2023-12-02T17:57:52.775Z,100709.16
2023-12-02T18:00:20.762Z,100712.09
2023-12-02T18:02:48.740Z,100705.09
2023-12-02T18:05:16.981Z,100706.16
2023-12-02T18:07:44.762Z,100717.44
2023-12-02T18:10:11.476Z,100719.88
2023-12-02T18:12:38.104Z,100710.16
2023-12-02T18:15:05.338Z,100710.72
2023-12-02T18:17:31.886Z,100715.31
2023-12-02T18:19:58.476Z,100712.91
2023-12-02T18:22:25.081Z,100717.13
2023-12-02T18:24:51.614Z,100716.13
2023-12-02T18:27:22.670Z,100715.59
2023-12-02T18:29:49.470Z,100709.09
2023-12-02T18:32:16.003Z,100710.94
2023-12-02T18:34:42.558Z,100713.56
2023-12-02T18:37:09.091Z,100708.69
2023-12-02T18:39:35.652Z,100716.78
2023-12-02T18:42:02.750Z,100713.56
2023-12-02T18:44:30.274Z,100719.03
2023-12-02T18:46:56.984Z,100720.41
2023-12-02T18:49:23.536Z,100720.41
2023-12-02T18:51:50.045Z,100728.28
2023-12-02T18:54:16.658Z,100726.09
2023-12-02T18:56:43.284Z,100728.22
2023-12-02T18:59:09.824Z,100729.53
2023-12-02T19:01:36.561Z,100739.47
2023-12-02T19:04:03.572Z,100736.50
2023-12-02T19:06:30.884Z,100735.97
2023-12-02T19:08:57.602Z,100739.19
2023-12-02T19:11:24.098Z,100734.66
2023-12-02T19:13:50.588Z,100742.13
2023-12-02T19:16:17.131Z,100747.78
2023-12-02T19:18:43.686Z,100749.66
2023-12-02T19:21:11.286Z,100748.59
2023-12-02T19:23:37.893Z,100750.00
2023-12-02T19:26:04.849Z,100752.63
2023-12-02T19:28:31.773Z,100747.88
2023-12-02T19:30:58.365Z,100748.38
2023-12-02T19:33:25.145Z,100745.59
2023-12-02T19:35:51.735Z,100750.72
2023-12-02T19:38:18.331Z,100752.69
2023-12-02T19:40:44.977Z,100752.63
2023-12-02T19:43:11.549Z,100752.06
2023-12-02T19:45:38.410Z,100753.41
2023-12-02T19:48:05.311Z,100760.94
2023-12-02T19:50:31.862Z,100760.50
2023-12-02T19:52:58.507Z,100773.66
2023-12-02T19:55:25.025Z,100775.53
2023-12-02T19:57:52.562Z,100769.59
2023-12-02T20:00:19.285Z,100775.53
2023-12-02T20:02:45.922Z,100775.28
2023-12-02T20:05:13.531Z,100780.63
2023-12-02T20:07:40.169Z,100780.94
2023-12-02T20:10:07.754Z,100786.84
2023-12-02T20:12:34.416Z,100783.63
2023-12-02T20:15:01.084Z,100782.81
2023-12-02T20:17:27.618Z,100790.63
2023-12-02T20:19:54.131Z,100790.34
2023-12-02T20:22:20.669Z,100803.81
2023-12-02T20:24:47.242Z,100801.13
2023-12-02T20:27:13.850Z,100803.47
2023-12-02T20:29:40.429Z,100807.28
2023-12-02T20:32:07.334Z,100809.97
2023-12-02T20:34:34.774Z,100812.34
2023-12-02T20:37:01.403Z,100812.34
2023-12-02T20:39:28.310Z,100808.34
2023-12-02T20:41:54.931Z,100805.06
2023-12-02T20:44:21.598Z,100805.56
2023-12-02T20:46:48.276Z,100805.25
2023-12-02T20:49:17.140Z,100805.25
2023-12-02T20:51:43.759Z,100808.25
2023-12-02T20:54:10.392Z,100808.53
2023-12-02T20:56:36.993Z,100814.16
2023-12-02T20:59:03.567Z,100815.44
2023-12-02T21:01:30.461Z,100824.41
2023-12-02T21:03:57.183Z,100820.69
2023-12-02T21:06:23.759Z,100819.88
2023-12-02T21:08:50.508Z,100819.34
2023-12-02T21:11:17.212Z,100820.19
2023-12-02T21:13:45.363Z,100830.19
2023-12-02T21:16:12.252Z,100827.00
2023-12-02T21:18:38.907Z,100829.44
2023-12-02T21:21:06.054Z,100837.53
2023-12-02T21:23:32.599Z,100843.81
2023-12-02T21:25:59.193Z,100837.34
2023-12-02T21:28:26.547Z,100838.75
2023-12-02T21:30:53.754Z,100850.91
2023-12-02T21:33:20.627Z,100855.78
2023-12-02T21:35:55.325Z,100858.25
2023-12-02T21:38:34.022Z,100861.53
2023-12-02T21:41:07.448Z,100860.19
2023-12-02T21:43:34.016Z,100866.38
2023-12-02T21:46:01.096Z,100868.56
2023-12-02T21:48:42.315Z,100874.75
2023-12-02T21:51:28.022Z,100876.38
2023-12-02T21:53:58.766Z,100875.56
2023-12-02T21:56:25.355Z,100874.22
2023-12-02T21:59:11.245Z,100887.47
2023-12-02T22:01:39.162Z,100889.31
2023-12-02T22:04:11.478Z,100890.13
2023-12-02T22:06:46.737Z,100895.28
2023-12-02T22:09:28.499Z,100895.53
2023-12-02T22:11:56.675Z,100900.34
2023-12-02T22:14:25.959Z,100910.56
2023-12-02T22:17:07.358Z,100903.88
2023-12-02T22:19:35.123Z,100916.53
2023-12-02T22:22:05.568Z,100923.28
2023-12-02T22:24:38.346Z,100923.84
2023-12-02T22:27:06.428Z,100928.72
2023-12-02T22:29:33.529Z,100926.03
2023-12-02T22:32:00.753Z,100925.97
2023-12-02T22:34:27.452Z,100936.78
2023-12-02T22:36:54.023Z,100937.34
2023-12-02T22:39:22.610Z,100938.69
2023-12-02T22:41:54.207Z,100938.91
2023-12-02T22:44:21.869Z,100940.81
2023-12-02T22:46:50.631Z,100950.03
2023-12-02T22:49:23.621Z,100954.59
2023-12-02T22:51:51.588Z,100961.63
2023-12-02T22:54:30.031Z,100964.84
2023-12-02T22:56:57.107Z,100964.31
2023-12-02T22:59:24.886Z,100969.19
2023-12-02T23:01:54.538Z,100968.66
2023-12-02T23:04:37.572Z,100977.88
2023-12-02T23:07:38.335Z,100983.84
2023-12-02T23:10:22.749Z,100981.69
2023-12-02T23:12:51.454Z,100986.53
2023-12-02T23:15:37.963Z,100984.41
2023-12-02T23:18:07.017Z,100985.50
2023-12-02T23:20:35.055Z,100985.25
2023-12-02T23:23:02.141Z,100993.59
2023-12-02T23:25:29.596Z,100998.50
2023-12-02T23:27:57.296Z,100995.25
2023-12-02T23:30:24.092Z,100995.56
2023-12-02T23:32:52.171Z,100993.16
2023-12-02T23:35:21.665Z,100997.72
2023-12-02T23:37:49.190Z,101001.78
2023-12-02T23:40:28.315Z,101008.03
2023-12-02T23:42:58.979Z,101008.03
2023-12-02T23:45:26.131Z,101008.31
2023-12-02T23:47:53.353Z,101013.44
2023-12-02T23:50:20.695Z,101018.56
2023-12-02T23:52:48.636Z,101018.31
2023-12-02T23:55:15.898Z,101024.81
2023-12-02T23:57:44.498Z,101024.25
